createdAt,value
2023-04-22T00:00:29.168Z,73.80
2023-04-22T00:08:37.309Z,73.30
2023-04-22T00:16:42.955Z,72.80
2023-04-22T00:24:51.092Z,73.30
2023-04-22T00:32:56.921Z,73.60
2023-04-22T00:41:06.171Z,74.90
2023-04-22T00:49:12.121Z,74.80
2023-04-22T00:57:21.588Z,74.70
2023-04-22T01:05:27.861Z,74.60
2023-04-22T01:13:37.081Z,74.50
2023-04-22T01:21:43.497Z,75.20
2023-04-22T01:29:52.526Z,74.40
2023-04-22T01:37:58.253Z,73.80
2023-04-22T01:46:08.799Z,73.40
2023-04-22T01:54:14.720Z,73.50
2023-04-22T02:02:23.911Z,73.40
2023-04-22T02:10:29.557Z,73.40
2023-04-22T02:18:37.982Z,73.40
2023-04-22T02:26:46.314Z,73.00
2023-04-22T02:34:55.737Z,72.90
2023-04-22T02:43:01.201Z,72.60
2023-04-22T02:51:10.079Z,72.80
2023-04-22T02:59:15.682Z,73.00
2023-04-22T03:07:23.922Z,73.20
2023-04-22T03:15:29.487Z,73.70
2023-04-22T03:23:37.523Z,73.70
2023-04-22T03:31:44.126Z,74.80
2023-04-22T03:39:52.382Z,77.70
2023-04-22T03:47:58.327Z,78.50
2023-04-22T03:56:15.661Z,79.20
2023-04-22T04:04:25.349Z,78.50
2023-04-22T04:12:40.325Z,78.60
2023-04-22T04:20:46.228Z,78.90
2023-04-22T04:28:54.355Z,78.60
2023-04-22T04:37:00.112Z,79.60
2023-04-22T04:45:17.975Z,78.90
2023-04-22T04:53:26.037Z,76.90
2023-04-22T05:01:36.247Z,74.80
2023-04-22T05:09:46.806Z,73.10
2023-04-22T05:17:55.467Z,74.40
2023-04-22T05:26:01.176Z,75.00
2023-04-22T05:34:12.196Z,74.60
2023-04-22T05:42:18.237Z,72.80
2023-04-22T05:50:26.657Z,72.30
2023-04-22T05:58:38.854Z,71.90
2023-04-22T06:06:54.484Z,72.60
2023-04-22T06:15:00.392Z,74.10
2023-04-22T06:23:08.813Z,71.20
2023-04-22T06:31:21.758Z,68.90
2023-04-22T06:39:30.300Z,66.90
2023-04-22T06:48:00.206Z,64.60
2023-04-22T06:56:26.020Z,62.10
2023-04-22T07:04:32.339Z,58.90
2023-04-22T07:12:41.441Z,58.50
2023-04-22T07:20:46.912Z,59.60
2023-04-22T07:28:54.983Z,57.90
2023-04-22T07:37:00.569Z,57.50
2023-04-22T07:45:09.844Z,56.00
2023-04-22T07:53:16.164Z,55.90
2023-04-22T08:01:24.233Z,54.40
2023-04-22T08:09:29.769Z,52.90
2023-04-22T08:17:37.940Z,51.30
2023-04-22T08:25:43.509Z,52.20
2023-04-22T08:33:51.697Z,50.60
2023-04-22T08:41:58.473Z,51.40
2023-04-22T08:50:09.977Z,48.70
2023-04-22T08:58:15.802Z,50.00
2023-04-22T09:06:25.568Z,49.00
2023-04-22T09:14:31.583Z,49.70
2023-04-22T09:22:47.050Z,48.30
2023-04-22T09:30:52.493Z,47.50
2023-04-22T09:39:04.026Z,46.80
2023-04-22T09:47:10.855Z,46.20
2023-04-22T09:55:20.493Z,43.60
2023-04-22T10:03:26.255Z,44.10
2023-04-22T10:11:34.580Z,45.00
2023-04-22T10:19:42.818Z,45.30
2023-04-22T10:27:57.193Z,45.50
2023-04-22T10:36:20.751Z,46.50
2023-04-22T10:44:32.034Z,48.50
2023-04-22T10:52:37.651Z,48.70
2023-04-22T11:00:53.539Z,48.70
2023-04-22T11:09:13.189Z,44.80
2023-04-22T11:17:23.557Z,44.00
2023-04-22T11:25:30.032Z,44.10
2023-04-22T11:33:39.724Z,42.80
2023-04-22T11:41:45.799Z,43.50
2023-04-22T11:50:07.161Z,42.30
2023-04-22T11:58:14.811Z,40.70
2023-04-22T12:06:23.061Z,40.70
2023-04-22T12:14:35.829Z,41.50
2023-04-22T12:22:44.154Z,40.40
2023-04-22T12:30:50.459Z,36.80
2023-04-22T12:38:58.490Z,31.10
2023-04-22T12:55:45.846Z,26.70
2023-04-22T13:03:53.926Z,24.10
2023-04-22T13:12:03.319Z,23.20
2023-04-22T13:20:12.548Z,25.80
2023-04-22T13:28:20.707Z,29.10
2023-04-22T13:36:26.477Z,31.40
2023-04-22T13:44:34.536Z,32.00
2023-04-22T13:52:39.973Z,34.70
2023-04-22T14:00:48.050Z,35.70
2023-04-22T14:08:53.524Z,37.70
2023-04-22T14:17:05.151Z,37.30
2023-04-22T14:25:11.870Z,36.90
2023-04-22T14:33:20.307Z,37.50
2023-04-22T14:41:25.929Z,37.50
2023-04-22T14:49:34.026Z,37.30
2023-04-22T14:57:39.929Z,39.70
2023-04-22T15:05:49.549Z,39.50
2023-04-22T15:13:58.234Z,43.80
2023-04-22T15:22:06.417Z,45.30
2023-04-22T15:30:12.682Z,45.80
2023-04-22T15:38:22.217Z,45.30
2023-04-22T15:46:27.791Z,44.70
2023-04-22T15:54:36.003Z,45.30
2023-04-22T16:02:41.848Z,46.00
2023-04-22T16:10:50.398Z,45.90
2023-04-22T16:18:56.048Z,46.10
2023-04-22T16:27:04.709Z,46.60
2023-04-22T16:35:12.342Z,46.60
2023-04-22T16:43:22.970Z,46.60
2023-04-22T16:51:29.162Z,46.70
2023-04-22T16:59:37.902Z,47.40
2023-04-22T17:07:44.877Z,47.60
2023-04-22T17:15:53.040Z,48.50
2023-04-22T17:23:58.918Z,49.60
2023-04-22T17:32:07.130Z,50.90
2023-04-22T17:40:13.687Z,50.90
2023-04-22T17:48:21.896Z,50.80
2023-04-22T17:56:28.221Z,51.30
2023-04-22T18:04:36.351Z,51.90
2023-04-22T18:12:42.075Z,54.10
2023-04-22T18:20:50.274Z,56.30
2023-04-22T18:28:55.801Z,58.50
2023-04-22T18:37:05.415Z,59.30
2023-04-22T18:45:12.095Z,59.30
2023-04-22T18:53:22.001Z,60.40
2023-04-22T19:01:28.060Z,60.80
2023-04-22T19:09:36.564Z,61.10
2023-04-22T19:17:47.380Z,61.70
2023-04-22T19:25:57.047Z,62.60
2023-04-22T19:34:03.083Z,61.90
2023-04-22T19:42:11.783Z,61.70
2023-04-22T19:50:18.636Z,61.40
2023-04-22T19:58:28.576Z,60.60
2023-04-22T20:06:35.805Z,62.60
2023-04-22T20:14:44.669Z,62.40
2023-04-22T20:22:51.599Z,61.50
2023-04-22T20:30:59.900Z,61.40
2023-04-22T20:39:09.308Z,62.00
2023-04-22T20:47:17.512Z,62.70
2023-04-22T20:55:22.986Z,64.00
2023-04-22T21:03:31.729Z,64.50
2023-04-22T21:11:38.182Z,66.50
2023-04-22T21:19:49.647Z,68.10
2023-04-22T21:27:56.370Z,69.20
2023-04-22T21:36:04.552Z,69.40
2023-04-22T21:44:10.124Z,70.70
2023-04-22T21:52:18.287Z,70.10
2023-04-22T22:00:25.332Z,69.90
2023-04-22T22:08:35.012Z,71.50
2023-04-22T22:16:41.149Z,71.50
2023-04-22T22:24:49.407Z,72.50
2023-04-22T22:32:55.164Z,73.50
2023-04-22T22:41:03.203Z,74.00
2023-04-22T22:49:08.811Z,75.20
2023-04-22T22:57:16.910Z,76.10
2023-04-22T23:05:22.910Z,76.90
2023-04-22T23:13:30.991Z,77.10
2023-04-22T23:21:38.924Z,77.40
2023-04-22T23:29:48.097Z,75.50
2023-04-22T23:37:55.023Z,74.40
2023-04-22T23:46:03.198Z,75.00
2023-04-22T23:54:09.254Z,75.10
